sensor_id;sensor_type;location;lat;lon;timestamp;temperature;humidity
40153;DHT22;26371;56.992;23.912;2022-08-21T00:00:38;19.30;99.90
40153;DHT22;26371;56.992;23.912;2022-08-21T00:03:11;19.30;99.90
40153;DHT22;26371;56.992;23.912;2022-08-21T00:05:43;19.30;99.90
40153;DHT22;26371;56.992;23.912;2022-08-21T00:21:20;19.30;99.90
40153;DHT22;26371;56.992;23.912;2022-08-21T00:23:50;19.30;99.90
40153;DHT22;26371;56.992;23.912;2022-08-21T00:26:19;19.30;99.90
40153;DHT22;26371;56.992;23.912;2022-08-21T00:28:48;19.30;99.90
40153;DHT22;26371;56.992;23.912;2022-08-21T00:31:16;19.30;99.90
40153;DHT22;26371;56.992;23.912;2022-08-21T00:33:46;19.30;99.90
40153;DHT22;26371;56.992;23.912;2022-08-21T00:36:14;19.20;99.90
40153;DHT22;26371;56.992;23.912;2022-08-21T00:38:44;19.20;99.90
40153;DHT22;26371;56.992;23.912;2022-08-21T00:41:13;19.20;99.90
40153;DHT22;26371;56.992;23.912;2022-08-21T00:44:02;19.20;99.90
40153;DHT22;26371;56.992;23.912;2022-08-21T00:46:32;19.10;99.90
40153;DHT22;26371;56.992;23.912;2022-08-21T00:49:00;19.10;99.90
40153;DHT22;26371;56.992;23.912;2022-08-21T00:51:32;19.10;99.90
40153;DHT22;26371;56.992;23.912;2022-08-21T00:54:05;19.10;99.90
40153;DHT22;26371;56.992;23.912;2022-08-21T00:56:45;19.00;99.90
40153;DHT22;26371;56.992;23.912;2022-08-21T00:59:14;19.00;99.90
40153;DHT22;26371;56.992;23.912;2022-08-21T01:01:44;18.90;99.90
40153;DHT22;26371;56.992;23.912;2022-08-21T01:04:12;19.00;99.90
40153;DHT22;26371;56.992;23.912;2022-08-21T01:06:42;19.00;99.90
40153;DHT22;26371;56.992;23.912;2022-08-21T01:09:13;18.90;99.90
40153;DHT22;26371;56.992;23.912;2022-08-21T01:11:42;18.90;99.90
40153;DHT22;26371;56.992;23.912;2022-08-21T01:14:11;18.90;99.90
40153;DHT22;26371;56.992;23.912;2022-08-21T01:16:40;18.90;99.90
40153;DHT22;26371;56.992;23.912;2022-08-21T01:19:11;18.90;99.90
40153;DHT22;26371;56.992;23.912;2022-08-21T01:21:42;18.90;99.90
40153;DHT22;26371;56.992;23.912;2022-08-21T01:24:11;18.90;99.90
40153;DHT22;26371;56.992;23.912;2022-08-21T01:26:40;18.90;99.90
40153;DHT22;26371;56.992;23.912;2022-08-21T01:29:13;18.90;99.90
40153;DHT22;26371;56.992;23.912;2022-08-21T01:31:43;18.90;99.90
40153;DHT22;26371;56.992;23.912;2022-08-21T01:34:12;18.80;99.90
40153;DHT22;26371;56.992;23.912;2022-08-21T01:36:44;18.80;99.90
40153;DHT22;26371;56.992;23.912;2022-08-21T01:39:13;18.80;99.90
40153;DHT22;26371;56.992;23.912;2022-08-21T01:41:41;18.70;99.90
40153;DHT22;26371;56.992;23.912;2022-08-21T01:44:11;18.70;99.90
40153;DHT22;26371;56.992;23.912;2022-08-21T01:46:40;18.70;99.90
40153;DHT22;26371;56.992;23.912;2022-08-21T01:49:08;18.70;99.90
40153;DHT22;26371;56.992;23.912;2022-08-21T01:51:36;18.70;99.90
40153;DHT22;26371;56.992;23.912;2022-08-21T01:54:07;18.70;99.90
40153;DHT22;26371;56.992;23.912;2022-08-21T01:56:36;18.70;99.90
40153;DHT22;26371;56.992;23.912;2022-08-21T01:59:05;18.70;99.90
40153;DHT22;26371;56.992;23.912;2022-08-21T02:01:34;18.70;99.90
40153;DHT22;26371;56.992;23.912;2022-08-21T02:04:03;18.70;99.90
40153;DHT22;26371;56.992;23.912;2022-08-21T02:06:31;18.70;99.90
40153;DHT22;26371;56.992;23.912;2022-08-21T02:09:00;18.60;99.90
40153;DHT22;26371;56.992;23.912;2022-08-21T02:11:30;18.60;99.90
40153;DHT22;26371;56.992;23.912;2022-08-21T02:14:06;18.60;99.90
40153;DHT22;26371;56.992;23.912;2022-08-21T02:16:37;18.60;99.90
40153;DHT22;26371;56.992;23.912;2022-08-21T02:19:15;18.50;99.90
40153;DHT22;26371;56.992;23.912;2022-08-21T02:21:48;18.50;99.90
40153;DHT22;26371;56.992;23.912;2022-08-21T02:24:20;18.50;99.90
40153;DHT22;26371;56.992;23.912;2022-08-21T02:26:53;18.50;99.90
40153;DHT22;26371;56.992;23.912;2022-08-21T02:29:22;18.50;99.90
40153;DHT22;26371;56.992;23.912;2022-08-21T02:31:50;18.40;99.90
40153;DHT22;26371;56.992;23.912;2022-08-21T02:34:19;18.40;99.90
40153;DHT22;26371;56.992;23.912;2022-08-21T02:36:55;18.40;99.90
40153;DHT22;26371;56.992;23.912;2022-08-21T02:39:25;18.30;99.90
40153;DHT22;26371;56.992;23.912;2022-08-21T02:41:55;18.30;99.90
40153;DHT22;26371;56.992;23.912;2022-08-21T02:44:25;18.30;99.90
40153;DHT22;26371;56.992;23.912;2022-08-21T02:47:00;18.40;99.90
40153;DHT22;26371;56.992;23.912;2022-08-21T02:49:29;18.40;99.90
40153;DHT22;26371;56.992;23.912;2022-08-21T02:52:00;18.40;99.90
40153;DHT22;26371;56.992;23.912;2022-08-21T02:54:28;18.40;99.90
40153;DHT22;26371;56.992;23.912;2022-08-21T02:56:58;18.40;99.90
40153;DHT22;26371;56.992;23.912;2022-08-21T02:59:27;18.40;99.90
40153;DHT22;26371;56.992;23.912;2022-08-21T03:01:55;18.40;99.90
40153;DHT22;26371;56.992;23.912;2022-08-21T03:04:24;18.40;99.90
40153;DHT22;26371;56.992;23.912;2022-08-21T03:06:52;18.30;99.90
40153;DHT22;26371;56.992;23.912;2022-08-21T03:09:21;18.30;99.90
40153;DHT22;26371;56.992;23.912;2022-08-21T03:11:49;18.30;99.90
40153;DHT22;26371;56.992;23.912;2022-08-21T03:14:19;18.30;99.90
40153;DHT22;26371;56.992;23.912;2022-08-21T03:16:48;18.30;99.90
40153;DHT22;26371;56.992;23.912;2022-08-21T03:19:16;18.30;99.90
40153;DHT22;26371;56.992;23.912;2022-08-21T03:21:45;18.30;99.90
40153;DHT22;26371;56.992;23.912;2022-08-21T03:24:13;18.30;99.90
40153;DHT22;26371;56.992;23.912;2022-08-21T03:26:45;18.30;99.90
40153;DHT22;26371;56.992;23.912;2022-08-21T03:29:13;18.30;99.90
40153;DHT22;26371;56.992;23.912;2022-08-21T03:31:43;18.30;99.90
40153;DHT22;26371;56.992;23.912;2022-08-21T03:34:11;18.30;99.90
40153;DHT22;26371;56.992;23.912;2022-08-21T03:36:40;18.30;99.90
40153;DHT22;26371;56.992;23.912;2022-08-21T03:39:08;18.30;99.90
40153;DHT22;26371;56.992;23.912;2022-08-21T03:41:37;18.30;99.90
40153;DHT22;26371;56.992;23.912;2022-08-21T03:44:05;18.30;99.90
40153;DHT22;26371;56.992;23.912;2022-08-21T03:46:34;18.30;99.90
40153;DHT22;26371;56.992;23.912;2022-08-21T03:49:04;18.30;99.90
40153;DHT22;26371;56.992;23.912;2022-08-21T03:51:32;18.20;99.90
40153;DHT22;26371;56.992;23.912;2022-08-21T03:54:02;18.20;99.90
40153;DHT22;26371;56.992;23.912;2022-08-21T03:56:30;18.20;99.90
40153;DHT22;26371;56.992;23.912;2022-08-21T03:58:59;18.30;99.90
40153;DHT22;26371;56.992;23.912;2022-08-21T04:01:29;18.20;99.90
40153;DHT22;26371;56.992;23.912;2022-08-21T04:03:58;18.30;99.90
40153;DHT22;26371;56.992;23.912;2022-08-21T04:06:27;18.30;99.90
40153;DHT22;26371;56.992;23.912;2022-08-21T04:09:03;18.30;99.90
40153;DHT22;26371;56.992;23.912;2022-08-21T04:11:31;18.30;99.90
40153;DHT22;26371;56.992;23.912;2022-08-21T04:14:00;18.30;99.90
40153;DHT22;26371;56.992;23.912;2022-08-21T04:16:29;18.30;99.90
40153;DHT22;26371;56.992;23.912;2022-08-21T04:18:57;18.30;99.90
40153;DHT22;26371;56.992;23.912;2022-08-21T04:21:26;18.40;99.90
40153;DHT22;26371;56.992;23.912;2022-08-21T04:23:56;18.50;99.90
40153;DHT22;26371;56.992;23.912;2022-08-21T04:26:25;18.50;99.90
40153;DHT22;26371;56.992;23.912;2022-08-21T04:28:53;18.40;99.90
40153;DHT22;26371;56.992;23.912;2022-08-21T04:31:23;18.60;99.90
40153;DHT22;26371;56.992;23.912;2022-08-21T04:33:54;18.60;99.90
40153;DHT22;26371;56.992;23.912;2022-08-21T04:36:23;18.70;99.90
40153;DHT22;26371;56.992;23.912;2022-08-21T04:38:52;18.70;99.90
40153;DHT22;26371;56.992;23.912;2022-08-21T04:41:24;18.80;99.90
40153;DHT22;26371;56.992;23.912;2022-08-21T04:43:54;18.80;99.90
40153;DHT22;26371;56.992;23.912;2022-08-21T04:46:23;18.80;99.90
40153;DHT22;26371;56.992;23.912;2022-08-21T04:48:51;18.80;99.90
40153;DHT22;26371;56.992;23.912;2022-08-21T04:51:22;18.80;99.90
40153;DHT22;26371;56.992;23.912;2022-08-21T04:53:53;18.90;99.90
40153;DHT22;26371;56.992;23.912;2022-08-21T04:56:26;19.00;99.90
40153;DHT22;26371;56.992;23.912;2022-08-21T04:58:55;19.00;99.90
40153;DHT22;26371;56.992;23.912;2022-08-21T05:01:25;19.10;99.90
40153;DHT22;26371;56.992;23.912;2022-08-21T05:03:56;19.10;99.90
40153;DHT22;26371;56.992;23.912;2022-08-21T05:06:26;19.10;99.90
40153;DHT22;26371;56.992;23.912;2022-08-21T05:08:56;19.10;99.90
40153;DHT22;26371;56.992;23.912;2022-08-21T05:11:29;19.20;99.90
40153;DHT22;26371;56.992;23.912;2022-08-21T05:13:59;19.20;99.90
40153;DHT22;26371;56.992;23.912;2022-08-21T05:16:27;19.20;99.90
40153;DHT22;26371;56.992;23.912;2022-08-21T05:19:03;19.20;99.90
40153;DHT22;26371;56.992;23.912;2022-08-21T05:21:32;19.30;99.90
40153;DHT22;26371;56.992;23.912;2022-08-21T05:24:01;19.30;99.90
40153;DHT22;26371;56.992;23.912;2022-08-21T05:26:30;19.40;99.90
40153;DHT22;26371;56.992;23.912;2022-08-21T05:29:10;19.40;99.90
40153;DHT22;26371;56.992;23.912;2022-08-21T05:31:39;19.40;99.90
40153;DHT22;26371;56.992;23.912;2022-08-21T05:34:07;19.40;99.90
40153;DHT22;26371;56.992;23.912;2022-08-21T05:36:36;19.40;99.90
40153;DHT22;26371;56.992;23.912;2022-08-21T05:39:05;19.50;99.90
40153;DHT22;26371;56.992;23.912;2022-08-21T05:41:35;19.50;99.90
40153;DHT22;26371;56.992;23.912;2022-08-21T05:44:05;19.60;99.90
40153;DHT22;26371;56.992;23.912;2022-08-21T05:46:36;19.60;99.90
40153;DHT22;26371;56.992;23.912;2022-08-21T05:49:04;19.70;99.90
40153;DHT22;26371;56.992;23.912;2022-08-21T05:51:33;19.70;99.90
40153;DHT22;26371;56.992;23.912;2022-08-21T05:54:02;19.80;99.90
40153;DHT22;26371;56.992;23.912;2022-08-21T05:56:30;19.90;99.90
40153;DHT22;26371;56.992;23.912;2022-08-21T05:59:00;20.00;99.90
40153;DHT22;26371;56.992;23.912;2022-08-21T06:01:34;20.00;99.90
40153;DHT22;26371;56.992;23.912;2022-08-21T06:04:03;20.10;99.90
40153;DHT22;26371;56.992;23.912;2022-08-21T06:06:32;20.20;99.90
40153;DHT22;26371;56.992;23.912;2022-08-21T06:09:00;20.30;99.90
40153;DHT22;26371;56.992;23.912;2022-08-21T06:11:29;20.30;99.90
40153;DHT22;26371;56.992;23.912;2022-08-21T06:13:58;20.40;99.90
40153;DHT22;26371;56.992;23.912;2022-08-21T06:16:28;20.50;99.90
40153;DHT22;26371;56.992;23.912;2022-08-21T06:18:56;20.50;99.90
40153;DHT22;26371;56.992;23.912;2022-08-21T06:21:28;20.60;99.90
40153;DHT22;26371;56.992;23.912;2022-08-21T06:23:57;20.60;99.90
40153;DHT22;26371;56.992;23.912;2022-08-21T06:26:26;20.60;99.90
40153;DHT22;26371;56.992;23.912;2022-08-21T06:28:54;20.80;99.90
40153;DHT22;26371;56.992;23.912;2022-08-21T06:31:24;20.80;99.90
40153;DHT22;26371;56.992;23.912;2022-08-21T06:33:54;20.90;99.90
40153;DHT22;26371;56.992;23.912;2022-08-21T06:36:22;20.90;99.90
40153;DHT22;26371;56.992;23.912;2022-08-21T06:38:51;21.00;99.90
40153;DHT22;26371;56.992;23.912;2022-08-21T06:41:22;21.10;99.90
40153;DHT22;26371;56.992;23.912;2022-08-21T06:43:53;21.20;99.90
40153;DHT22;26371;56.992;23.912;2022-08-21T06:46:21;21.30;99.90
40153;DHT22;26371;56.992;23.912;2022-08-21T06:48:50;21.30;99.90
40153;DHT22;26371;56.992;23.912;2022-08-21T06:51:19;21.30;99.90
40153;DHT22;26371;56.992;23.912;2022-08-21T06:53:48;21.30;99.90
40153;DHT22;26371;56.992;23.912;2022-08-21T06:56:17;21.30;99.90
40153;DHT22;26371;56.992;23.912;2022-08-21T06:58:46;21.40;99.90
40153;DHT22;26371;56.992;23.912;2022-08-21T07:01:14;21.40;99.90
40153;DHT22;26371;56.992;23.912;2022-08-21T07:06:11;21.60;99.90
40153;DHT22;26371;56.992;23.912;2022-08-21T07:08:41;21.70;99.90
40153;DHT22;26371;56.992;23.912;2022-08-21T07:11:11;21.80;99.90
40153;DHT22;26371;56.992;23.912;2022-08-21T07:13:41;21.80;99.90
40153;DHT22;26371;56.992;23.912;2022-08-21T07:16:11;21.80;99.90
40153;DHT22;26371;56.992;23.912;2022-08-21T07:18:39;21.90;99.90
40153;DHT22;26371;56.992;23.912;2022-08-21T07:21:08;21.90;99.90
40153;DHT22;26371;56.992;23.912;2022-08-21T07:23:37;21.90;99.90
40153;DHT22;26371;56.992;23.912;2022-08-21T07:26:07;21.90;99.90
40153;DHT22;26371;56.992;23.912;2022-08-21T07:28:36;22.00;99.90
40153;DHT22;26371;56.992;23.912;2022-08-21T07:31:04;22.00;99.90
40153;DHT22;26371;56.992;23.912;2022-08-21T07:33:33;22.00;99.90
40153;DHT22;26371;56.992;23.912;2022-08-21T07:36:02;22.10;99.90
40153;DHT22;26371;56.992;23.912;2022-08-21T07:38:31;22.10;99.90
40153;DHT22;26371;56.992;23.912;2022-08-21T07:41:00;22.10;99.90
40153;DHT22;26371;56.992;23.912;2022-08-21T07:43:30;22.10;99.90
40153;DHT22;26371;56.992;23.912;2022-08-21T07:46:00;22.10;99.90
40153;DHT22;26371;56.992;23.912;2022-08-21T07:48:28;22.20;99.90
40153;DHT22;26371;56.992;23.912;2022-08-21T07:50:57;22.30;99.90
40153;DHT22;26371;56.992;23.912;2022-08-21T07:53:26;22.40;99.90
40153;DHT22;26371;56.992;23.912;2022-08-21T07:55:56;22.50;99.90
40153;DHT22;26371;56.992;23.912;2022-08-21T07:58:25;22.60;99.90
40153;DHT22;26371;56.992;23.912;2022-08-21T08:00:55;22.60;99.90
40153;DHT22;26371;56.992;23.912;2022-08-21T08:03:23;22.60;99.90
40153;DHT22;26371;56.992;23.912;2022-08-21T08:05:55;22.70;99.90
40153;DHT22;26371;56.992;23.912;2022-08-21T08:08:25;22.70;99.90
40153;DHT22;26371;56.992;23.912;2022-08-21T08:10:53;22.80;99.90
40153;DHT22;26371;56.992;23.912;2022-08-21T08:13:22;22.80;99.90
40153;DHT22;26371;56.992;23.912;2022-08-21T08:15:50;22.90;99.90
40153;DHT22;26371;56.992;23.912;2022-08-21T08:18:20;23.00;99.90
40153;DHT22;26371;56.992;23.912;2022-08-21T08:20:49;23.10;99.90
40153;DHT22;26371;56.992;23.912;2022-08-21T08:23:18;23.20;99.90
40153;DHT22;26371;56.992;23.912;2022-08-21T08:25:46;23.20;99.90
40153;DHT22;26371;56.992;23.912;2022-08-21T08:28:15;23.30;99.90
40153;DHT22;26371;56.992;23.912;2022-08-21T08:30:44;23.30;99.90
40153;DHT22;26371;56.992;23.912;2022-08-21T08:33:13;23.30;99.90
40153;DHT22;26371;56.992;23.912;2022-08-21T08:35:43;23.30;99.90
40153;DHT22;26371;56.992;23.912;2022-08-21T08:38:14;23.40;99.90
40153;DHT22;26371;56.992;23.912;2022-08-21T08:40:51;23.40;99.90
40153;DHT22;26371;56.992;23.912;2022-08-21T08:43:20;23.40;99.90
40153;DHT22;26371;56.992;23.912;2022-08-21T08:45:50;23.50;99.90
40153;DHT22;26371;56.992;23.912;2022-08-21T08:48:31;23.50;99.90
40153;DHT22;26371;56.992;23.912;2022-08-21T08:51:03;23.50;99.90
40153;DHT22;26371;56.992;23.912;2022-08-21T08:53:35;23.60;99.90
40153;DHT22;26371;56.992;23.912;2022-08-21T08:56:05;23.60;99.90
40153;DHT22;26371;56.992;23.912;2022-08-21T08:58:36;23.70;99.90
40153;DHT22;26371;56.992;23.912;2022-08-21T09:01:10;23.70;99.90
40153;DHT22;26371;56.992;23.912;2022-08-21T09:03:41;23.70;99.90
40153;DHT22;26371;56.992;23.912;2022-08-21T09:06:13;23.80;99.90
40153;DHT22;26371;56.992;23.912;2022-08-21T09:08:49;23.80;99.90
40153;DHT22;26371;56.992;23.912;2022-08-21T09:11:21;23.80;99.90
40153;DHT22;26371;56.992;23.912;2022-08-21T09:13:55;23.90;99.90
40153;DHT22;26371;56.992;23.912;2022-08-21T09:16:30;24.00;99.90
40153;DHT22;26371;56.992;23.912;2022-08-21T09:19:03;24.00;99.90
40153;DHT22;26371;56.992;23.912;2022-08-21T09:21:38;24.00;99.90
40153;DHT22;26371;56.992;23.912;2022-08-21T09:24:18;24.10;99.90
40153;DHT22;26371;56.992;23.912;2022-08-21T09:26:49;24.10;99.90
40153;DHT22;26371;56.992;23.912;2022-08-21T09:29:23;24.10;99.90
40153;DHT22;26371;56.992;23.912;2022-08-21T09:31:54;24.00;99.90
40153;DHT22;26371;56.992;23.912;2022-08-21T09:34:27;24.10;99.90
40153;DHT22;26371;56.992;23.912;2022-08-21T09:36:57;24.10;99.90
40153;DHT22;26371;56.992;23.912;2022-08-21T09:39:27;24.20;99.90
40153;DHT22;26371;56.992;23.912;2022-08-21T09:41:57;24.30;99.90
40153;DHT22;26371;56.992;23.912;2022-08-21T09:44:26;24.30;99.90
40153;DHT22;26371;56.992;23.912;2022-08-21T09:46:58;24.50;99.90
40153;DHT22;26371;56.992;23.912;2022-08-21T09:49:30;24.70;99.90
40153;DHT22;26371;56.992;23.912;2022-08-21T09:52:03;24.80;99.90
40153;DHT22;26371;56.992;23.912;2022-08-21T09:54:34;24.80;99.90
40153;DHT22;26371;56.992;23.912;2022-08-21T09:57:11;24.70;99.90
40153;DHT22;26371;56.992;23.912;2022-08-21T10:00:16;24.60;99.90
40153;DHT22;26371;56.992;23.912;2022-08-21T10:02:46;24.60;99.90
40153;DHT22;26371;56.992;23.912;2022-08-21T10:05:16;24.70;99.90
40153;DHT22;26371;56.992;23.912;2022-08-21T10:07:46;24.80;99.90
40153;DHT22;26371;56.992;23.912;2022-08-21T10:10:15;25.00;99.70
40153;DHT22;26371;56.992;23.912;2022-08-21T10:12:46;25.20;99.40
40153;DHT22;26371;56.992;23.912;2022-08-21T10:15:18;25.10;99.00
40153;DHT22;26371;56.992;23.912;2022-08-21T10:17:54;25.00;99.10
40153;DHT22;26371;56.992;23.912;2022-08-21T10:20:28;24.90;99.00
40153;DHT22;26371;56.992;23.912;2022-08-21T10:23:02;24.80;99.50
40153;DHT22;26371;56.992;23.912;2022-08-21T10:25:37;24.90;99.30
40153;DHT22;26371;56.992;23.912;2022-08-21T10:28:23;24.90;99.40
40153;DHT22;26371;56.992;23.912;2022-08-21T10:30:55;24.90;99.00
40153;DHT22;26371;56.992;23.912;2022-08-21T10:33:27;24.90;99.00
40153;DHT22;26371;56.992;23.912;2022-08-21T10:35:58;24.90;99.00
40153;DHT22;26371;56.992;23.912;2022-08-21T10:41:56;24.90;99.40
40153;DHT22;26371;56.992;23.912;2022-08-21T10:44:30;25.00;99.40
40153;DHT22;26371;56.992;23.912;2022-08-21T10:47:01;25.00;99.30
40153;DHT22;26371;56.992;23.912;2022-08-21T10:49:36;25.00;99.40
40153;DHT22;26371;56.992;23.912;2022-08-21T10:52:18;25.00;99.20
40153;DHT22;26371;56.992;23.912;2022-08-21T10:54:51;25.00;99.10
40153;DHT22;26371;56.992;23.912;2022-08-21T10:57:24;24.90;99.40
40153;DHT22;26371;56.992;23.912;2022-08-21T11:00:00;24.80;99.30
40153;DHT22;26371;56.992;23.912;2022-08-21T11:02:30;24.80;99.40
40153;DHT22;26371;56.992;23.912;2022-08-21T11:05:01;24.80;99.40
40153;DHT22;26371;56.992;23.912;2022-08-21T11:07:31;24.80;99.30
40153;DHT22;26371;56.992;23.912;2022-08-21T11:10:02;24.80;99.50
40153;DHT22;26371;56.992;23.912;2022-08-21T11:12:35;24.90;99.40
40153;DHT22;26371;56.992;23.912;2022-08-21T11:15:23;25.10;99.40
40153;DHT22;26371;56.992;23.912;2022-08-21T11:17:58;25.20;99.20
40153;DHT22;26371;56.992;23.912;2022-08-21T11:20:28;25.30;98.80
40153;DHT22;26371;56.992;23.912;2022-08-21T11:23:03;25.20;98.80
40153;DHT22;26371;56.992;23.912;2022-08-21T11:25:35;25.20;98.90
40153;DHT22;26371;56.992;23.912;2022-08-21T11:28:08;25.10;99.10
40153;DHT22;26371;56.992;23.912;2022-08-21T11:30:43;25.10;99.40
40153;DHT22;26371;56.992;23.912;2022-08-21T11:33:20;25.10;99.00
40153;DHT22;26371;56.992;23.912;2022-08-21T11:35:51;25.10;98.80
40153;DHT22;26371;56.992;23.912;2022-08-21T11:38:25;25.00;99.00
40153;DHT22;26371;56.992;23.912;2022-08-21T11:41:05;24.90;99.00
40153;DHT22;26371;56.992;23.912;2022-08-21T11:43:39;24.80;99.40
40153;DHT22;26371;56.992;23.912;2022-08-21T11:46:21;24.90;99.40
40153;DHT22;26371;56.992;23.912;2022-08-21T11:48:57;24.80;99.50
40153;DHT22;26371;56.992;23.912;2022-08-21T11:51:29;24.80;99.60
40153;DHT22;26371;56.992;23.912;2022-08-21T11:54:03;24.80;99.60
40153;DHT22;26371;56.992;23.912;2022-08-21T11:56:35;24.80;99.70
40153;DHT22;26371;56.992;23.912;2022-08-21T11:59:08;24.90;99.70
40153;DHT22;26371;56.992;23.912;2022-08-21T12:01:39;25.00;99.50
40153;DHT22;26371;56.992;23.912;2022-08-21T12:04:10;25.00;99.50
40153;DHT22;26371;56.992;23.912;2022-08-21T12:06:44;25.20;99.40
40153;DHT22;26371;56.992;23.912;2022-08-21T12:09:28;25.50;99.20
40153;DHT22;26371;56.992;23.912;2022-08-21T12:12:03;25.50;98.90
40153;DHT22;26371;56.992;23.912;2022-08-21T12:14:38;25.80;99.00
40153;DHT22;26371;56.992;23.912;2022-08-21T12:17:08;26.10;98.40
40153;DHT22;26371;56.992;23.912;2022-08-21T12:19:39;26.30;97.80
40153;DHT22;26371;56.992;23.912;2022-08-21T12:22:08;26.10;97.80
40153;DHT22;26371;56.992;23.912;2022-08-21T12:24:38;26.00;98.20
40153;DHT22;26371;56.992;23.912;2022-08-21T12:27:14;25.80;98.40
40153;DHT22;26371;56.992;23.912;2022-08-21T12:29:51;25.50;98.60
40153;DHT22;26371;56.992;23.912;2022-08-21T12:32:23;25.30;98.60
40153;DHT22;26371;56.992;23.912;2022-08-21T12:34:52;25.30;98.80
40153;DHT22;26371;56.992;23.912;2022-08-21T12:37:24;25.30;98.90
40153;DHT22;26371;56.992;23.912;2022-08-21T12:39:57;25.30;99.20
40153;DHT22;26371;56.992;23.912;2022-08-21T12:42:30;25.30;99.20
40153;DHT22;26371;56.992;23.912;2022-08-21T12:45:04;25.20;99.10
40153;DHT22;26371;56.992;23.912;2022-08-21T12:47:33;25.20;99.30
40153;DHT22;26371;56.992;23.912;2022-08-21T12:50:04;25.30;99.10
40153;DHT22;26371;56.992;23.912;2022-08-21T12:52:34;25.40;98.90
40153;DHT22;26371;56.992;23.912;2022-08-21T12:55:06;25.40;98.70
40153;DHT22;26371;56.992;23.912;2022-08-21T12:57:35;25.40;98.80
40153;DHT22;26371;56.992;23.912;2022-08-21T13:00:07;25.40;98.60
40153;DHT22;26371;56.992;23.912;2022-08-21T13:02:41;25.40;98.70
40153;DHT22;26371;56.992;23.912;2022-08-21T13:05:12;25.30;98.90
40153;DHT22;26371;56.992;23.912;2022-08-21T13:07:43;25.30;99.10
40153;DHT22;26371;56.992;23.912;2022-08-21T13:10:14;25.30;99.40
40153;DHT22;26371;56.992;23.912;2022-08-21T13:12:44;25.30;99.20
40153;DHT22;26371;56.992;23.912;2022-08-21T13:15:21;25.30;99.10
40153;DHT22;26371;56.992;23.912;2022-08-21T13:17:59;25.40;99.20
40153;DHT22;26371;56.992;23.912;2022-08-21T13:20:31;25.30;99.10
40153;DHT22;26371;56.992;23.912;2022-08-21T13:23:00;25.30;99.10
40153;DHT22;26371;56.992;23.912;2022-08-21T13:25:30;25.30;99.20
40153;DHT22;26371;56.992;23.912;2022-08-21T13:28:04;25.20;99.40
40153;DHT22;26371;56.992;23.912;2022-08-21T13:30:37;25.30;99.30
40153;DHT22;26371;56.992;23.912;2022-08-21T13:33:06;25.30;99.20
40153;DHT22;26371;56.992;23.912;2022-08-21T13:35:46;25.40;99.30
40153;DHT22;26371;56.992;23.912;2022-08-21T13:38:15;25.40;99.10
40153;DHT22;26371;56.992;23.912;2022-08-21T13:40:45;25.40;99.20
40153;DHT22;26371;56.992;23.912;2022-08-21T13:43:16;25.50;99.10
40153;DHT22;26371;56.992;23.912;2022-08-21T13:45:49;25.50;99.20
40153;DHT22;26371;56.992;23.912;2022-08-21T13:48:18;25.60;99.10
40153;DHT22;26371;56.992;23.912;2022-08-21T13:50:49;25.70;99.10
40153;DHT22;26371;56.992;23.912;2022-08-21T13:53:22;25.70;99.10
40153;DHT22;26371;56.992;23.912;2022-08-21T13:55:51;25.70;99.10
40153;DHT22;26371;56.992;23.912;2022-08-21T13:58:26;25.70;98.90
40153;DHT22;26371;56.992;23.912;2022-08-21T14:00:56;25.60;98.60
40153;DHT22;26371;56.992;23.912;2022-08-21T14:03:27;25.60;98.90
40153;DHT22;26371;56.992;23.912;2022-08-21T14:05:56;25.60;99.00
40153;DHT22;26371;56.992;23.912;2022-08-21T14:08:27;25.60;99.10
40153;DHT22;26371;56.992;23.912;2022-08-21T14:10:57;25.50;98.80
40153;DHT22;26371;56.992;23.912;2022-08-21T14:13:36;25.50;99.00
40153;DHT22;26371;56.992;23.912;2022-08-21T14:16:17;25.40;98.90
40153;DHT22;26371;56.992;23.912;2022-08-21T14:18:50;25.30;98.70
40153;DHT22;26371;56.992;23.912;2022-08-21T14:21:30;25.30;99.00
40153;DHT22;26371;56.992;23.912;2022-08-21T14:24:04;25.20;99.10
40153;DHT22;26371;56.992;23.912;2022-08-21T14:26:34;25.20;99.20
40153;DHT22;26371;56.992;23.912;2022-08-21T14:29:05;25.20;99.30
40153;DHT22;26371;56.992;23.912;2022-08-21T14:31:37;25.20;99.30
40153;DHT22;26371;56.992;23.912;2022-08-21T14:34:10;25.10;99.50
40153;DHT22;26371;56.992;23.912;2022-08-21T14:36:46;25.10;99.40
40153;DHT22;26371;56.992;23.912;2022-08-21T14:39:15;25.10;99.20
40153;DHT22;26371;56.992;23.912;2022-08-21T14:41:43;25.00;99.00
40153;DHT22;26371;56.992;23.912;2022-08-21T14:44:13;24.90;99.10
40153;DHT22;26371;56.992;23.912;2022-08-21T14:46:43;24.90;99.30
40153;DHT22;26371;56.992;23.912;2022-08-21T14:49:23;24.90;99.60
40153;DHT22;26371;56.992;23.912;2022-08-21T14:51:53;24.80;99.80
40153;DHT22;26371;56.992;23.912;2022-08-21T14:54:25;24.80;99.70
40153;DHT22;26371;56.992;23.912;2022-08-21T14:56:59;24.80;99.70
40153;DHT22;26371;56.992;23.912;2022-08-21T14:59:28;24.80;99.50
40153;DHT22;26371;56.992;23.912;2022-08-21T15:01:59;24.80;99.50
40153;DHT22;26371;56.992;23.912;2022-08-21T15:04:28;24.80;99.70
40153;DHT22;26371;56.992;23.912;2022-08-21T15:06:56;24.70;99.90
40153;DHT22;26371;56.992;23.912;2022-08-21T15:09:25;24.60;99.90
40153;DHT22;26371;56.992;23.912;2022-08-21T15:11:55;24.60;99.90
40153;DHT22;26371;56.992;23.912;2022-08-21T15:14:24;24.60;99.90
40153;DHT22;26371;56.992;23.912;2022-08-21T15:16:53;24.60;99.90
40153;DHT22;26371;56.992;23.912;2022-08-21T15:19:23;24.60;99.90
40153;DHT22;26371;56.992;23.912;2022-08-21T15:21:52;24.60;99.90
40153;DHT22;26371;56.992;23.912;2022-08-21T15:24:20;24.60;99.90
40153;DHT22;26371;56.992;23.912;2022-08-21T15:26:49;24.60;99.90
40153;DHT22;26371;56.992;23.912;2022-08-21T15:29:17;24.60;99.90
40153;DHT22;26371;56.992;23.912;2022-08-21T15:31:53;24.60;99.90
40153;DHT22;26371;56.992;23.912;2022-08-21T15:34:24;24.60;99.90
40153;DHT22;26371;56.992;23.912;2022-08-21T15:36:54;24.50;99.90
40153;DHT22;26371;56.992;23.912;2022-08-21T15:39:23;24.50;99.90
40153;DHT22;26371;56.992;23.912;2022-08-21T15:41:57;24.50;99.90
40153;DHT22;26371;56.992;23.912;2022-08-21T15:44:37;24.50;99.90
40153;DHT22;26371;56.992;23.912;2022-08-21T15:47:06;24.50;99.90
40153;DHT22;26371;56.992;23.912;2022-08-21T15:49:36;24.50;99.90
40153;DHT22;26371;56.992;23.912;2022-08-21T15:52:05;24.40;99.90
40153;DHT22;26371;56.992;23.912;2022-08-21T15:54:44;24.30;99.90
40153;DHT22;26371;56.992;23.912;2022-08-21T15:57:14;24.30;99.90